メインページ
METAR-TAF:

METAR-TAF

空港 :

ローラン・ギャロス空港

サン=ドニ, レユニオン

緯度: 20-53S, 経度: 055-31E, 海抜: 21m

現時点の気象観測

当レポートは33分前の05:00(UTC)に作成
東/南東の風 6kt
気温 27°C
湿度 79%
気圧 1017 hPa
視程10km以上
高度9200ftの千切れ雲あり
高度18000ftの千切れ雲あり

METAR: FMEE 150500Z AUTO 12006KT 9999 BKN092 BKN180 27/23 Q1017 BECMG 13015G25KT

時間: 09:33 (05:33 UTC)

予報

当レポートは6時間33分前の23:00(UTC)に作成
予報は15日の 00時(UTC)から 16日の 06時(UTC)まで有効
南/南東の風 6kt
視程10km以上
高度2500ftの雲はほとんどない
高度4000ftの雲は散在している
確率 30% :
15日の 00時(UTC)から 15日の 03時(UTC)まで一時的に
視程: 3000m
高度1500ftの千切れ雲あり, 塔状積雲.
にわか雨
15日の 04時(UTC)から 15日の 06時(UTC)まで徐々に
南東の風 15kt、最大25ktの突風を伴う
15日の 10時(UTC)から 15日の 16時(UTC)まで一時的に
南東の風 20kt、最大30ktの突風を伴う

TAF: FMEE 142300Z 1500/1606 16006KT 9999 FEW025 SCT040 PROB30 TEMPO 1500/1503 3000 SHRA BKN015TCU BECMG 1504/1506 13015G25KT TEMPO 1510/1516 13020G30KT

4,000以上の空港の気象観測と天気予報(METAR報とTAF報)

利用可能な観測所は地図上に黄色い丸と赤い丸で示す。

丸の上にカーソルを重ねると観測所名を参照できる。

次にクリックすると気象観測と天気予報を参照できる。

マップの切り替え:黒色「×」印の緑ボタンをクリックして拡大、「-」印の緑ボタンをクリックして縮小、緑色の三角印をクリックして隣りの地図に切り替え


METAR-TAF: